Aviation Digital Data Service (ADDS)

Output produced by METARs form (0344 UTC 23 November 2017)
found at http://www.aviationweather.gov/adds/metars/
 
EGAA 230320Z AUTO 21011KT 9999 NCD 02/02 Q0981
TAF EGAA 222302Z 2300/2324 23010KT 9999 FEW008 
     TEMPO 2300/2301 BKN008 
     PROB30 
     TEMPO 2303/2305 BKN006 
     TEMPO 2305/2310 9000 RA BKN006 
     TEMPO 2310/2316 25016G26KT 7000 SHRA BKN010CB 
     PROB40 2322/2324 3000 BR BKN001
       
EGPL 230320Z AUTO 34007KT 9999 NCD 03/01 Q0979
TAF AMD EGPL 230301Z 2303/2312 01015KT 9999 FEW045 
     TEMPO 2303/2305 4000 RA BKN004 
     TEMPO 2305/2312 7000 SHRASN BKN008
       
EGUB 230250Z 19013KT 9999 -RA SCT014 BKN023 BKN050 13/11 Q0985 GRN
EGKB 222220Z 20026G39KT 9999 -SHRA SCT020 13/11 Q0991
EGBB 230320Z AUTO 21012G22KT 170V240 9999 BKN012/// OVC023/// 12/10 Q0983
TAF AMD EGBB 230111Z 2301/2324 20015KT 9999 SCT015 
     TEMPO 2301/2306 7000 RA BKN012 
     PROB30 
     TEMPO 2301/2306 22018G30KT 
     PROB30 
     TEMPO 2301/2304 1200 +RA BKN008 
     BECMG 2305/2308 26014KT 
     PROB30 
     TEMPO 2309/2315 24017G27KT 7000 SHRA
       
EGDM 230250Z AUTO 22012KT 9999 RA BKN060/// SCT100/// 11/10 Q0986
EGHH 222250Z 21022G33KT 9999 BKN030 15/11 Q0988 RERA
TAF EGHH 222301Z 2300/2309 20020G30KT 9999 SCT020 
     TEMPO 2300/2306 20028G40KT 6000 SHRA BKN014 
     PROB30 
     TEMPO 2300/2306 3000 +SHRA BKN009 
     BECMG 2303/2306 27015KT
       
EGGD 230320Z AUTO 23012KT 9000 -RA BKN004 BKN009 OVC013 11/11 Q0986
TAF AMD EGGD 230136Z 2301/2324 21009KT 9999 BKN018 
     TEMPO 2301/2305 7000 SHRA BKN009 
     PROB30 
     TEMPO 2301/2303 21022G35KT 3000 +SHRA BKN004 BKN020CB 
     TEMPO 2305/2316 24017G27KT 
     PROB30 
     TEMPO 2319/2324 9000 RA
       
EGVN 230250Z 22005KT 9999 SCT012 BKN021 12/11 Q0985 RERA BECMG FEW012
TAF EGVN 230124Z 2303/2403 23012KT 9999 SCT035 
     PROB40 
     TEMPO 2303/2307 21015G25KT 4000 RA SCT012 
     TEMPO 2309/2315 23018G28KT 
     PROB30 
     TEMPO 2400/2403 SCT022
       
EGAA 230320Z AUTO 21011KT 9999 NCD 02/02 Q0981
TAF EGAA 222302Z 2300/2324 23010KT 9999 FEW008 
     TEMPO 2300/2301 BKN008 
     PROB30 
     TEMPO 2303/2305 BKN006 
     TEMPO 2305/2310 9000 RA BKN006 
     TEMPO 2310/2316 25016G26KT 7000 SHRA BKN010CB 
     PROB40 2322/2324 3000 BR BKN001
       
EGAC 230320Z AUTO 20011KT 9999 NCD 02/02 Q0981
EGBB 230320Z AUTO 21012G22KT 170V240 9999 BKN012/// OVC023/// 12/10 Q0983
TAF AMD EGBB 230111Z 2301/2324 20015KT 9999 SCT015 
     TEMPO 2301/2306 7000 RA BKN012 
     PROB30 
     TEMPO 2301/2306 22018G30KT 
     PROB30 
     TEMPO 2301/2304 1200 +RA BKN008 
     BECMG 2305/2308 26014KT 
     PROB30 
     TEMPO 2309/2315 24017G27KT 7000 SHRA
       
EGCC 230320Z AUTO 26011KT 9999 -RA BKN005/// BKN013/// OVC026/// //////TCU 08/07 Q0982 REDZ TEMPO 4000 RA
TAF AMD EGCC 230253Z 2302/2406 25014KT 9999 BKN020 
     TEMPO 2302/2305 28018G30KT 6000 RA BKN012 
     PROB30 
     TEMPO 2302/2305 3000 +SHRA BKN004 
     BECMG 2309/2312 20020G30KT 
     TEMPO 2310/2317 7000 SHRA 
     PROB30 
     TEMPO 2313/2316 4000 +SHRA 
     BECMG 2315/2318 26008KT
       
EGCK 230320Z AUTO 26016KT 9999 BKN031/// 08/02 Q0985
TAF EGCK 230159Z 2303/2312 30015KT 9999 SCT035 
     BECMG 2303/2305 24015KT 
     TEMPO 2303/2312 25020G35KT
       
EGCN 230320Z 22011KT 9999 FEW034 BKN040 BKN047 13/10 Q0982
TAF EGCN 222300Z 2300/2324 20017KT 9999 BKN025 
     TEMPO 2300/2305 5000 -RA SHRA BKN012 
     TEMPO 2300/2302 20025G35KT 
     BECMG 2306/2309 26016KT 
     TEMPO 2306/2317 27020G32KT
       
EGDM 230250Z AUTO 22012KT 9999 RA BKN060/// SCT100/// 11/10 Q0986
EGDR 230250Z 30018G28KT 3000 -RADZ FEW004 SCT006 BKN010 09/08 Q0990 YLO1
TAF EGDR 230217Z 2303/2312 27020G30KT 9999 FEW015 SCT030 
     TEMPO 2306/2312 -SHRA FEW012 SCT020
       
EGDX 230250Z AUTO 28014KT 4500 RA SCT005/// BKN013/// 11/11 Q0985
EGDY 230250Z AUTO 23009KT 9999 SCT017/// SCT060/// 12/10 Q0986
EGEC 222220Z 23002KT 7000 BKN018 BKN027 05/04 Q0979
EGFF 230320Z AUTO 28014KT 7000 -RA BKN004 OVC011 10/10 Q0986 RERA REDZ
TAF AMD EGFF 230241Z 2302/2324 26015G35KT 9999 SCT020 
     TEMPO 2302/2305 7000 RA BKN012 
     PROB30 
     TEMPO 2302/2304 22025G40KT 3000 +RA BKN004 
     PROB30 
     TEMPO 2308/2324 7000 SHRA 
     BECMG 2315/2318 26007KT
       
EGGD 230320Z AUTO 23012KT 9000 -RA BKN004 BKN009 OVC013 11/11 Q0986
TAF AMD EGGD 230136Z 2301/2324 21009KT 9999 BKN018 
     TEMPO 2301/2305 7000 SHRA BKN009 
     PROB30 
     TEMPO 2301/2303 21022G35KT 3000 +SHRA BKN004 BKN020CB 
     TEMPO 2305/2316 24017G27KT 
     PROB30 
     TEMPO 2319/2324 9000 RA
       
EGGP 230320Z 28018KT 9999 SCT010 BKN018 07/06 Q0983
TAF AMD EGGP 230034Z 2300/2324 18003KT 9999 BKN020 
     BECMG 2300/2303 26010KT 
     TEMPO 2300/2304 4000 RA BKN012 
     PROB30 
     TEMPO 2302/2305 28025G35KT +SHRA 
     BECMG 2308/2311 25020G35KT 
     TEMPO 2308/2318 7000 SHRA 
     PROB30 
     TEMPO 2311/2316 4000 +SHRA 
     BECMG 2315/2318 25014KT 
     PROB30 
     TEMPO 2318/2324 7000 SHRA
       
EGGW 230320Z AUTO 21014KT 9999 -RA BKN011/// OVC018/// //////CB 12/11 Q0985
TAF AMD EGGW 230310Z 2303/2324 19018G28KT 9999 SCT025 
     TEMPO 2303/2307 8000 -SHRA BKN010 
     PROB30 
     TEMPO 2303/2304 21028G38KT 3000 +SHRA BKN008 
     BECMG 2304/2307 23014KT 
     PROB30 
     TEMPO 2304/2307 27018G28KT 4000 SHRA BKN008 
     TEMPO 2309/2315 24018G28KT 
     BECMG 2318/2321 22004KT
       
EGHH 222250Z 21022G33KT 9999 BKN030 15/11 Q0988 RERA
TAF EGHH 222301Z 2300/2309 20020G30KT 9999 SCT020 
     TEMPO 2300/2306 20028G40KT 6000 SHRA BKN014 
     PROB30 
     TEMPO 2300/2306 3000 +SHRA BKN009 
     BECMG 2303/2306 27015KT
       
EGHI 222150Z 20023G40KT 160V230 8000 RA FEW024 SCT036 BKN042 14/10 Q0990
TAF EGJB 230158Z 2303/2312 19030G45KT 9999 BKN030 
     TEMPO 2303/2308 3000 SHRA BKN008 BKN012CB 
     BECMG 2304/2306 27025G38KT
       
EGJJ 230320Z AUTO 24025KT 5000 FEW008/// BKN009/// OVC011/// 13/12 Q0993 RESHRA
TAF EGJJ 230158Z 2303/2312 19030G45KT 9999 BKN030 
     TEMPO 2303/2308 3000 SHRA BKN008 BKN012CB 
     BECMG 2304/2306 27025G38KT
       
EGKB 222220Z 20026G39KT 9999 -SHRA SCT020 13/11 Q0991
EGKK 230320Z 20020G37KT 6000 RA BKN015 OVC020 14/11 Q0987
TAF EGKK 222255Z 2300/2406 20016G28KT 9999 SCT035 
     TEMPO 2300/2308 7000 SHRA 
     PROB30 
     TEMPO 2300/2304 19020G38KT 4000 +SHRA BKN014 
     BECMG 2304/2307 24015KT 
     PROB40 
     TEMPO 2304/2308 BKN012 
     PROB30 
     TEMPO 2310/2318 25018G28KT 
     TEMPO 2321/2405 7000 -RADZ BKN014 
     PROB30 
     TEMPO 2400/2404 4000 RADZ BKN009
       
EGLC 230320Z AUTO 21016G28KT 9999 -RA BKN024/// OVC043/// //////CB 15/11 Q0986 RESHGR
TAF EGLC 230159Z 2303/2312 20020G30KT 9999 SCT025 
     PROB30 
     TEMPO 2303/2305 21030G40KT 4000 +SHRA BKN014 
     BECMG 2305/2308 26014KT 
     PROB30 
     TEMPO 2305/2308 27018G28KT 6000 SHRA BKN012 
     BECMG 2309/2312 25017G27KT
       
EGLL 230320Z AUTO 21015KT 9999 -RA SCT015/// BKN024/// BKN036/// //////CB 13/11 Q0986 TEMPO BKN014
TAF EGLL 222300Z 2300/2406 20020G32KT 9999 SCT025 
     TEMPO 2300/2307 6000 RA 
     PROB30 
     TEMPO 2300/2304 19025G42KT 4000 +SHRA BKN012 
     BECMG 2304/2307 23018G30KT 
     TEMPO 2307/2310 26014KT 
     BECMG 2314/2316 23010KT 
     BECMG 2321/2324 VRB03KT 
     PROB40 
     TEMPO 2321/2404 6000 RA BKN012
       
EGMC 230320Z 20022G34KT 9999 -SHRA FEW023 SCT030 15/08 Q0987
TAF EGMC 230159Z 2303/2312 20020G32KT 9999 SCT025 
     PROB30 
     TEMPO 2303/2306 21030G42KT 4000 +SHRA BKN014 
     BECMG 2306/2309 26015KT 
     PROB30 
     TEMPO 2306/2309 27018G28KT 6000 SHRA BKN012 
     BECMG 2309/2312 25018G28KT
       
EGMD 230320Z AUTO 19029G40KT 9999 FEW035/// BKN041/// 15/09 Q0989
TAF EGMD 230159Z 2303/2312 20022G32KT 9999 SCT025 
     TEMPO 2303/2306 21032G42KT 7000 SHRA 
     PROB30 
     TEMPO 2303/2306 4000 +SHRA BKN010 
     BECMG 2306/2309 24018KT 
     PROB30 
     TEMPO 2306/2309 26022G32KT 6000 SHRA BKN010 
     TEMPO 2309/2312 26022G32KT
       
EGNJ 230320Z AUTO 21015KT 9999 FEW017/// BKN022/// BKN036/// 13/11 Q0981
TAF EGNJ 230202Z 2303/2312 20022G32KT 9999 SCT020 
     BECMG 2303/2306 24015KT 
     PROB30 
     TEMPO 2303/2305 6000 SHRA BKN014 
     TEMPO 2304/2312 24018G28KT
       
EGNM 230320Z 24009G20KT 200V290 9999 SCT014 09/08 Q0980
TAF AMD EGNM 230037Z 2300/2324 24011KT 9999 BKN020 
     TEMPO 2301/2305 7000 SHRA BKN014 
     TEMPO 2305/2318 25020G30KT 
     PROB30 
     TEMPO 2311/2318 5000 +SHRA BKN014 BKN020CB
       
EGNS 230250Z 27012KT 240V300 9999 FEW025 SCT040 06/01 Q0982
EGNT 230320Z 22003KT 9999 SCT012 SCT030 06/06 Q0978
TAF EGNT 222300Z 2300/2324 VRB03KT 4000 -RA BR BKN002 
     BECMG 2300/2303 9999 NSW SCT015 
     BECMG 2303/2306 25012KT 
     TEMPO 2303/2306 6000 SHRA BKN009 
     TEMPO 2304/2307 27020G32KT 
     PROB30 
     TEMPO 2306/2310 6000 SHRA 
     PROB40 
     TEMPO 2307/2321 27018G28KT 
     TEMPO 2310/2317 6000 SHRA BKN009
       
EGNV 222320Z 19020KT 9000 -RA FEW023 SCT039 13/10 Q0975
EGNX 230320Z 20018KT 9999 SCT013 SCT028 12/10 Q0982
TAF EGNX 222258Z 2300/2324 20017KT 9999 SCT015 
     TEMPO 2300/2307 22020G32KT 7000 RA BKN012 
     BECMG 2306/2309 26018KT 
     TEMPO 2310/2315 24017G27KT 7000 SHRA
       
EGOM 230250Z AUTO 26015KT 6000 RA BKN002/// SCT015/// 05/05 Q0977
EGOP 230250Z AUTO 30017KT 9999 // FEW014/// BKN028/// 08/07 Q0987
EGOS 230250Z AUTO 22005KT 9999 BKN019/// 11/10 Q0982 RERA
EGOV 230250Z AUTO 26013KT 9999 FEW029/// BKN050/// 06/02 Q0984 RERA
EGPA 230320Z AUTO 03016KT 9999 -DZ SCT012/// BKN021/// 04/01 Q0978
TAF EGPA 230154Z 2303/2312 03018KT 9999 SCT015 
     PROB30 
     TEMPO 2304/2307 4000 SHRASN BKN006 
     BECMG 2306/2309 33015KT 
     PROB30 
     TEMPO 2310/2312 4000 SHRA BKN008
       
TAF EGPB 230200Z 2303/2312 35012KT 9999 FEW030
       
EGPC 230320Z AUTO 04018KT 6000 -RA BKN010/// 03/03 Q0977
TAF EGPC 230154Z 2303/2312 02018KT 9999 SCT012 
     PROB30 
     TEMPO 2303/2312 4000 SHRASN BKN006 
     BECMG 2309/2312 31015KT
       
EGPD 230320Z AUTO 31005KT 9999 SCT028/// //////TCU 02/01 Q0977 NOSIG
TAF EGPD 222258Z 2300/2324 32005KT 9999 BKN020 
     TEMPO 2300/2304 2000 RA BKN004 
     TEMPO 2304/2312 0800 SN BKN001 
     BECMG 2306/2309 35015KT 
     PROB30 
     TEMPO 2306/2310 0300 +SN 
     BECMG 2309/2312 27010KT 
     PROB30 
     TEMPO 2315/2318 6000 -SHSN BKN004
       
EGPE 230320Z 24007KT 9999 SCT034 BKN045 02/01 Q0977
TAF EGPE 230154Z 2303/2312 VRB03KT 9999 SCT030 
     TEMPO 2303/2310 0800 SN BKN003 
     PROB30 
     TEMPO 2305/2310 0300 +SN BKN001
       
EGPF 230320Z AUTO 24008KT 9999 SCT020 BKN039 04/02 Q0979
TAF EGPF 222300Z 2300/2324 26007KT 9999 BKN020 
     TEMPO 2300/2304 4000 RA BKN007 
     PROB40 
     TEMPO 2303/2313 4000 SHRA BKN009
       
EGPH 230320Z 25005KT 9999 -RA BKN007 04/03 Q0978
TAF AMD EGPH 230027Z 2300/2324 04008KT 9999 BKN012 
     BECMG 2300/2303 30010KT 
     TEMPO 2300/2306 4000 RA BKN004 
     PROB30 
     TEMPO 2300/2306 1400 RADZ BR BKN001 
     BECMG 2303/2306 24012KT SCT015 
     PROB30 
     TEMPO 2306/2312 4000 SHRA SHRASN BKN006
       
EGPI 230320Z AUTO 21010KT 8000 RA FEW016/// BKN022/// 04/03 Q0979
TAF EGPI 230202Z 2303/2312 24009KT 9999 SCT030 
     TEMPO 2303/2312 6000 SHRA BKN009 
     PROB30 
     TEMPO 2303/2312 3000 +SHRA BKN004 
     BECMG 2309/2312 34018G28KT
       
EGPK 230250Z 28010KT 9999 -SHRA SCT014 BKN032 05/03 Q0979
TAF EGPK 222300Z 2300/2324 VRB03KT 9999 BKN020 
     PROB40 
     TEMPO 2300/2305 4000 -RA SHRA BKN008 
     BECMG 2304/2307 26012KT 
     PROB30 
     TEMPO 2310/2324 6000 SHRA BKN009
       
EGPL 230320Z AUTO 34007KT 9999 NCD 03/01 Q0979
TAF AMD EGPL 230301Z 2303/2312 01015KT 9999 FEW045 
     TEMPO 2303/2305 4000 RA BKN004 
     TEMPO 2305/2312 7000 SHRASN BKN008
       
EGPM 230320Z AUTO 35015KT 9999 OVC040/// 04/M04 Q0977
TAF EGPM 230154Z 2303/2312 33012KT 9999 SCT045
       
EGPO 230320Z 01021KT 9999 -SHRA FEW012 SCT016 03/01 Q0980
TAF AMD EGPO 230329Z 2303/2312 01018KT 9999 FEW010 
     TEMPO 2303/2312 6000 SHRASN BKN008 
     PROB30 
     TEMPO 2303/2309 1000 SHSN BKN002 
     BECMG 2309/2312 32012KT
       
EGPU 230320Z AUTO 05007KT 9999 NCD 01/00 Q0978 RERA
EGQK 230250Z AUTO 22007KT 9999 -RA FEW036/// BKN045/// 02/01 Q0977
EGQL 230250Z 28007KT 9999 -RA FEW020 BKN033 03/03 Q0977 BLU
TAF EGQL 230137Z 2303/2312 VRB05KT 9999 -RA FEW010 BKN025 
     TEMPO 2303/2312 7000 RA SCT010 
     PROB30 
     TEMPO 2303/2308 3000 RASN SCT004 BKN010 
     BECMG 2306/2309 26015KT
       
EGQM 230250Z AUTO 22005KT 9999 FEW044/// SCT050/// 07/06 Q0977
EGQS 230250Z 24009KT 9999 -RA FEW026 BKN050 02/01 Q0977 BLU
TAF EGQS 230119Z 2303/2321 24006KT 9999 BKN045 
     TEMPO 2303/2311 6000 RA BKN020 
     PROB30 
     TEMPO 2303/2311 3000 RASN SCT005 BKN008 
     PROB30 
     TEMPO 2305/2309 33015G25KT 
     BECMG 2309/2312 30015KT 
     PROB30 
     TEMPO 2314/2318 3000 SHRASN BKN020CB
       
EGSH 230320Z AUTO 20023G35KT 160V230 9999 BKN030/// BKN035/// 14/09 Q0985
TAF EGSH 230159Z 2303/2312 20020G30KT 9999 SCT025 
     PROB30 
     TEMPO 2303/2305 21030G40KT 4000 +SHRA BKN014 
     BECMG 2305/2308 26014KT 
     PROB30 
     TEMPO 2305/2308 27018G28KT 6000 SHRA BKN012 
     BECMG 2309/2312 24017G27KT
       
EGSS 230320Z AUTO 20018KT 4900 RA BKN017/// //////TCU 12/11 Q0986
TAF AMD EGSS 230313Z 2303/2406 20018G28KT 9999 SCT025 
     TEMPO 2303/2307 8000 -SHRA BKN012 
     PROB30 
     TEMPO 2303/2304 21028G38KT 3000 +SHRA BKN010 
     BECMG 2304/2307 23014KT 
     PROB30 
     TEMPO 2304/2307 26018G28KT 4000 SHRA BKN008 
     TEMPO 2309/2315 24018G28KT 
     BECMG 2318/2321 22004KT
       
EGTE 230150Z 21007KT 9999 FEW015 11/10 Q0986
EGTK 222220Z 20022KT 9999 FEW008 SCT014 BKN016 13/12 Q0986
EGUB 230250Z 19013KT 9999 -RA SCT014 BKN023 BKN050 13/11 Q0985 GRN
EGUL 230329Z AUTO 19008G22KT 9999 FEW003 OVC027 13/13 A2908 RMK AO2 RAE24DZB24E29 CIG 025 RWY06 SLP851
TAF AMD EGUL 221452Z 2214/2318 20015G25KT 9999 BKN020 520004 QNH2932INS 
     TEMPO 2214/2218 20025G35KT 
     BECMG 2217/2218 20020G35KT 8000 -SHRA BKN015 520004 QNH2914INS 
     BECMG 2223/2300 27015G20KT 9999 NSW FEW040 520004 QNH2935INS 
     BECMG 2312/2313 23015G25KT 9999 BKN035 520004 QNH2947INS TX17/2215Z TN07/2309Z LAST NO AMDS AFT 2214 NEXT 2620
       
EGUN 230325Z AUTO 19010KT 9999 BKN026 OVC038 13/13 A2908 RMK AO2 RAE25 SLP851 $
TAF AMD EGUN 230311Z 2303/2409 20015G25KT 5000 -RA BR BKN025 520004 QNH2907INS 
     BECMG 2317/2318 20010G20KT 9999 NSW BKN030 QNH2947INS TX16/2313Z TN07/2309Z
       
EGUW 230250Z AUTO 20019G30KT 9999 FEW036/// BKN045/// 14/08 Q0986 RERA
EGVA 230341Z AUTO 22014KT 9999 SCT018 OVC027 12/10 A2909 RMK AO2 CIG 019V027 CIG 020 RWY09 SLP854 $
EGVN 230250Z 22005KT 9999 SCT012 BKN021 12/11 Q0985 RERA BECMG FEW012
TAF EGVN 230124Z 2303/2403 23012KT 9999 SCT035 
     PROB40 
     TEMPO 2303/2307 21015G25KT 4000 RA SCT012 
     TEMPO 2309/2315 23018G28KT 
     PROB30 
     TEMPO 2400/2403 SCT022
       
EGVO 230250Z 22020KT 9999 RA BKN012 BKN016 13/11 Q0986 GRN
TAF EGVO 221644Z 2218/2306 20020G30KT 9999 SCT030 
     TEMPO 2218/2306 6000 RA BKN020 
     PROB30 
     TEMPO 2218/2219 20024G40KT 
     PROB30 
     TEMPO 2219/2305 20024G40KT 4000 +SHRA SCT014TCU
       
EGVP 230250Z AUTO 22013KT 9999 // FEW009/// BKN050/// 12/10 Q0986
EGWU 230250Z AUTO 21014KT 1300 // FEW013/// BKN041/// 13/11 Q0986
TAF EGWU 222243Z 2300/2318 20018G28KT 9999 FEW022 SCT040 
     PROB40 
     TEMPO 2300/2307 7000 SHRA BKN020 
     PROB30 
     TEMPO 2300/2303 20023G38KT 4500 +SHRA BKN014CB 
     BECMG 2303/2306 23016G27KT 
     TEMPO 2306/2310 24013KT
       
EGXC 230250Z 21015KT 9999 FEW020 BKN040 12/10 Q0983 BLU
TAF EGXC 230130Z 2303/2321 20018G30KT 9999 FEW022 BKN035 
     PROB40 
     TEMPO 2303/2306 6000 RA BKN020 
     BECMG 2305/2308 23015G25KT 
     BECMG 2309/2312 22023G35KT 
     BECMG 2313/2316 25013KT
       
EGXE 230250Z AUTO 17007KT 9999 FEW024/// BKN100/// 09/07 Q0979
EGXP 230250Z AUTO 20011KT 9999 // BKN017/// BKN025/// 12/10 Q0981
EGXS 230250Z AUTO 20019G30KT 9999 // SCT021/// BKN060/// BKN120/// 13/10 Q0982
EGXT 230250Z AUTO 21018KT 9999 SCT016/// BKN060/// 12/10 Q0983
EGXU 230250Z AUTO 22007KT 9999 // FEW021/// BKN080/// 10/08 Q0979
EGXV 230250Z AUTO 24010KT 9999 FEW028/// BKN080/// 12/09 Q0980
EGXW 230250Z 21017KT 9999 -RA SCT018 BKN028 12/09 Q0982 WHT
TAF EGXW 230137Z 2303/2321 23015G25KT 9999 BKN030 
     TEMPO 2303/2306 22025G35KT 7000 SHRA BKN018 
     BECMG 2308/2311 24022G35KT 
     BECMG 2316/2318 23012KT
       
EGXZ 230250Z AUTO 21008KT 9999 FEW050/// OVC100/// 10/08 Q0979
EGYD 230250Z AUTO 21018KT 9999 // SCT017/// BKN050/// 12/10 Q0982
EGYM 230250Z AUTO 20020KT 9999 RA FEW027/// SCT060/// 13/11 Q0985
EGYP 230250Z 33010KT 9999 SCT010 BKN032 06/04 Q0993 GRN
TAF EGYP 230109Z 2303/2321 33010KT 9999 FEW020 BKN040 
     BECMG 2303/2306 29015KT BKN020 
     TEMPO 2303/2312 6000 RA BKN012 
     PROB30 
     TEMPO 2303/2310 4000 RADZ SCT005 
     BECMG 2306/2309 21020KT 
     BECMG 2310/2313 22025G35KT FEW020 
     PROB40 
     TEMPO 2315/2321 6000 SHGS SCT010CB
       
EGCK 230320Z AUTO 26016KT 9999 BKN031/// 08/02 Q0985
TAF EGCK 230159Z 2303/2312 30015KT 9999 SCT035 
     BECMG 2303/2305 24015KT 
     TEMPO 2303/2312 25020G35KT
       
EGEC 222220Z 23002KT 7000 BKN018 BKN027 05/04 Q0979
EGFF 230320Z AUTO 28014KT 7000 -RA BKN004 OVC011 10/10 Q0986 RERA REDZ
TAF AMD EGFF 230241Z 2302/2324 26015G35KT 9999 SCT020 
     TEMPO 2302/2305 7000 RA BKN012 
     PROB30 
     TEMPO 2302/2304 22025G40KT 3000 +RA BKN004 
     PROB30 
     TEMPO 2308/2324 7000 SHRA 
     BECMG 2315/2318 26007KT
       
EGLC 230320Z AUTO 21016G28KT 9999 -RA BKN024/// OVC043/// //////CB 15/11 Q0986 RESHGR
TAF EGLC 230159Z 2303/2312 20020G30KT 9999 SCT025 
     PROB30 
     TEMPO 2303/2305 21030G40KT 4000 +SHRA BKN014 
     BECMG 2305/2308 26014KT 
     PROB30 
     TEMPO 2305/2308 27018G28KT 6000 SHRA BKN012 
     BECMG 2309/2312 25017G27KT
       
EGAC 230320Z AUTO 20011KT 9999 NCD 02/02 Q0981
EGXC 230250Z 21015KT 9999 FEW020 BKN040 12/10 Q0983 BLU
TAF EGXC 230130Z 2303/2321 20018G30KT 9999 FEW022 BKN035 
     PROB40 
     TEMPO 2303/2306 6000 RA BKN020 
     BECMG 2305/2308 23015G25KT 
     BECMG 2309/2312 22023G35KT 
     BECMG 2313/2316 25013KT
       
EGYD 230250Z AUTO 21018KT 9999 // SCT017/// BKN050/// 12/10 Q0982
EGDR 230250Z 30018G28KT 3000 -RADZ FEW004 SCT006 BKN010 09/08 Q0990 YLO1
TAF EGDR 230217Z 2303/2312 27020G30KT 9999 FEW015 SCT030 
     TEMPO 2306/2312 -SHRA FEW012 SCT020
       
EGPD 230320Z AUTO 31005KT 9999 SCT028/// //////TCU 02/01 Q0977 NOSIG
TAF EGPD 222258Z 2300/2324 32005KT 9999 BKN020 
     TEMPO 2300/2304 2000 RA BKN004 
     TEMPO 2304/2312 0800 SN BKN001 
     BECMG 2306/2309 35015KT 
     PROB30 
     TEMPO 2306/2310 0300 +SN 
     BECMG 2309/2312 27010KT 
     PROB30 
     TEMPO 2315/2318 6000 -SHSN BKN004
       
EGNX 230320Z 20018KT 9999 SCT013 SCT028 12/10 Q0982
TAF EGNX 222258Z 2300/2324 20017KT 9999 SCT015 
     TEMPO 2300/2307 22020G32KT 7000 RA BKN012 
     BECMG 2306/2309 26018KT 
     TEMPO 2310/2315 24017G27KT 7000 SHRA
       
EGPH 230320Z 25005KT 9999 -RA BKN007 04/03 Q0978
TAF AMD EGPH 230027Z 2300/2324 04008KT 9999 BKN012 
     BECMG 2300/2303 30010KT 
     TEMPO 2300/2306 4000 RA BKN004 
     PROB30 
     TEMPO 2300/2306 1400 RADZ BR BKN001 
     BECMG 2303/2306 24012KT SCT015 
     PROB30 
     TEMPO 2306/2312 4000 SHRA SHRASN BKN006
       
EGTE 230150Z 21007KT 9999 FEW015 11/10 Q0986
EGVA 230341Z AUTO 22014KT 9999 SCT018 OVC027 12/10 A2909 RMK AO2 CIG 019V027 CIG 020 RWY09 SLP854 $
EGKK 230320Z 20020G37KT 6000 RA BKN015 OVC020 14/11 Q0987
TAF EGKK 222255Z 2300/2406 20016G28KT 9999 SCT035 
     TEMPO 2300/2308 7000 SHRA 
     PROB30 
     TEMPO 2300/2304 19020G38KT 4000 +SHRA BKN014 
     BECMG 2304/2307 24015KT 
     PROB40 
     TEMPO 2304/2308 BKN012 
     PROB30 
     TEMPO 2310/2318 25018G28KT 
     TEMPO 2321/2405 7000 -RADZ BKN014 
     PROB30 
     TEMPO 2400/2404 4000 RADZ BKN009
       
EGPF 230320Z AUTO 24008KT 9999 SCT020 BKN039 04/02 Q0979
TAF EGPF 222300Z 2300/2324 26007KT 9999 BKN020 
     TEMPO 2300/2304 4000 RA BKN007 
     PROB40 
     TEMPO 2303/2313 4000 SHRA BKN009
       
EGLL 230320Z AUTO 21015KT 9999 -RA SCT015/// BKN024/// BKN036/// //////CB 13/11 Q0986 TEMPO BKN014
TAF EGLL 222300Z 2300/2406 20020G32KT 9999 SCT025 
     TEMPO 2300/2307 6000 RA 
     PROB30 
     TEMPO 2300/2304 19025G42KT 4000 +SHRA BKN012 
     BECMG 2304/2307 23018G30KT 
     TEMPO 2307/2310 26014KT 
     BECMG 2314/2316 23010KT 
     BECMG 2321/2324 VRB03KT 
     PROB40 
     TEMPO 2321/2404 6000 RA BKN012
       
EGNJ 230320Z AUTO 21015KT 9999 FEW017/// BKN022/// BKN036/// 13/11 Q0981
TAF EGNJ 230202Z 2303/2312 20022G32KT 9999 SCT020 
     BECMG 2303/2306 24015KT 
     PROB30 
     TEMPO 2303/2305 6000 SHRA BKN014 
     TEMPO 2304/2312 24018G28KT
       
EGPE 230320Z 24007KT 9999 SCT034 BKN045 02/01 Q0977
TAF EGPE 230154Z 2303/2312 VRB03KT 9999 SCT030 
     TEMPO 2303/2310 0800 SN BKN003 
     PROB30 
     TEMPO 2305/2310 0300 +SN BKN001
       
EGPI 230320Z AUTO 21010KT 8000 RA FEW016/// BKN022/// 04/03 Q0979
TAF EGPI 230202Z 2303/2312 24009KT 9999 SCT030 
     TEMPO 2303/2312 6000 SHRA BKN009 
     PROB30 
     TEMPO 2303/2312 3000 +SHRA BKN004 
     BECMG 2309/2312 34018G28KT
       
EGTK 222220Z 20022KT 9999 FEW008 SCT014 BKN016 13/12 Q0986
EGQK 230250Z AUTO 22007KT 9999 -RA FEW036/// BKN045/// 02/01 Q0977
EGPA 230320Z AUTO 03016KT 9999 -DZ SCT012/// BKN021/// 04/01 Q0978
TAF EGPA 230154Z 2303/2312 03018KT 9999 SCT015 
     PROB30 
     TEMPO 2304/2307 4000 SHRASN BKN006 
     BECMG 2306/2309 33015KT 
     PROB30 
     TEMPO 2310/2312 4000 SHRA BKN008
       
EGUL 230329Z AUTO 19008G22KT 9999 FEW003 OVC027 13/13 A2908 RMK AO2 RAE24DZB24E29 CIG 025 RWY06 SLP851
TAF AMD EGUL 221452Z 2214/2318 20015G25KT 9999 BKN020 520004 QNH2932INS 
     TEMPO 2214/2218 20025G35KT 
     BECMG 2217/2218 20020G35KT 8000 -SHRA BKN015 520004 QNH2914INS 
     BECMG 2223/2300 27015G20KT 9999 NSW FEW040 520004 QNH2935INS 
     BECMG 2312/2313 23015G25KT 9999 BKN035 520004 QNH2947INS TX17/2215Z TN07/2309Z LAST NO AMDS AFT 2214 NEXT 2620
       
EGNM 230320Z 24009G20KT 200V290 9999 SCT014 09/08 Q0980
TAF AMD EGNM 230037Z 2300/2324 24011KT 9999 BKN020 
     TEMPO 2301/2305 7000 SHRA BKN014 
     TEMPO 2305/2318 25020G30KT 
     PROB30 
     TEMPO 2311/2318 5000 +SHRA BKN014 BKN020CB
       
EGXE 230250Z AUTO 17007KT 9999 FEW024/// BKN100/// 09/07 Q0979
EGQL 230250Z 28007KT 9999 -RA FEW020 BKN033 03/03 Q0977 BLU
TAF EGQL 230137Z 2303/2312 VRB05KT 9999 -RA FEW010 BKN025 
     TEMPO 2303/2312 7000 RA SCT010 
     PROB30 
     TEMPO 2303/2308 3000 RASN SCT004 BKN010 
     BECMG 2306/2309 26015KT
       
EGXU 230250Z AUTO 22007KT 9999 // FEW021/// BKN080/// 10/08 Q0979
EGGP 230320Z 28018KT 9999 SCT010 BKN018 07/06 Q0983
TAF AMD EGGP 230034Z 2300/2324 18003KT 9999 BKN020 
     BECMG 2300/2303 26010KT 
     TEMPO 2300/2304 4000 RA BKN012 
     PROB30 
     TEMPO 2302/2305 28025G35KT +SHRA 
     BECMG 2308/2311 25020G35KT 
     TEMPO 2308/2318 7000 SHRA 
     PROB30 
     TEMPO 2311/2316 4000 +SHRA 
     BECMG 2315/2318 25014KT 
     PROB30 
     TEMPO 2318/2324 7000 SHRA
       
EGQS 230250Z 24009KT 9999 -RA FEW026 BKN050 02/01 Q0977 BLU
TAF EGQS 230119Z 2303/2321 24006KT 9999 BKN045 
     TEMPO 2303/2311 6000 RA BKN020 
     PROB30 
     TEMPO 2303/2311 3000 RASN SCT005 BKN008 
     PROB30 
     TEMPO 2305/2309 33015G25KT 
     BECMG 2309/2312 30015KT 
     PROB30 
     TEMPO 2314/2318 3000 SHRASN BKN020CB
       
EGGW 230320Z AUTO 21014KT 9999 -RA BKN011/// OVC018/// //////CB 12/11 Q0985
TAF AMD EGGW 230310Z 2303/2324 19018G28KT 9999 SCT025 
     TEMPO 2303/2307 8000 -SHRA BKN010 
     PROB30 
     TEMPO 2303/2304 21028G38KT 3000 +SHRA BKN008 
     BECMG 2304/2307 23014KT 
     PROB30 
     TEMPO 2304/2307 27018G28KT 4000 SHRA BKN008 
     TEMPO 2309/2315 24018G28KT 
     BECMG 2318/2321 22004KT
       
EGMD 230320Z AUTO 19029G40KT 9999 FEW035/// BKN041/// 15/09 Q0989
TAF EGMD 230159Z 2303/2312 20022G32KT 9999 SCT025 
     TEMPO 2303/2306 21032G42KT 7000 SHRA 
     PROB30 
     TEMPO 2303/2306 4000 +SHRA BKN010 
     BECMG 2306/2309 24018KT 
     PROB30 
     TEMPO 2306/2309 26022G32KT 6000 SHRA BKN010 
     TEMPO 2309/2312 26022G32KT
       
EGCC 230320Z AUTO 26011KT 9999 -RA BKN005/// BKN013/// OVC026/// //////TCU 08/07 Q0982 REDZ TEMPO 4000 RA
TAF AMD EGCC 230253Z 2302/2406 25014KT 9999 BKN020 
     TEMPO 2302/2305 28018G30KT 6000 RA BKN012 
     PROB30 
     TEMPO 2302/2305 3000 +SHRA BKN004 
     BECMG 2309/2312 20020G30KT 
     TEMPO 2310/2317 7000 SHRA 
     PROB30 
     TEMPO 2313/2316 4000 +SHRA 
     BECMG 2315/2318 26008KT
       
EGYM 230250Z AUTO 20020KT 9999 RA FEW027/// SCT060/// 13/11 Q0985
EGUN 230325Z AUTO 19010KT 9999 BKN026 OVC038 13/13 A2908 RMK AO2 RAE25 SLP851 $
TAF AMD EGUN 230311Z 2303/2409 20015G25KT 5000 -RA BR BKN025 520004 QNH2907INS 
     BECMG 2317/2318 20010G20KT 9999 NSW BKN030 QNH2947INS TX16/2313Z TN07/2309Z
       
EGNT 230320Z 22003KT 9999 SCT012 SCT030 06/06 Q0978
TAF EGNT 222300Z 2300/2324 VRB03KT 4000 -RA BR BKN002 
     BECMG 2300/2303 9999 NSW SCT015 
     BECMG 2303/2306 25012KT 
     TEMPO 2303/2306 6000 SHRA BKN009 
     TEMPO 2304/2307 27020G32KT 
     PROB30 
     TEMPO 2306/2310 6000 SHRA 
     PROB40 
     TEMPO 2307/2321 27018G28KT 
     TEMPO 2310/2317 6000 SHRA BKN009
       
EGWU 230250Z AUTO 21014KT 1300 // FEW013/// BKN041/// 13/11 Q0986
TAF EGWU 222243Z 2300/2318 20018G28KT 9999 FEW022 SCT040 
     PROB40 
     TEMPO 2300/2307 7000 SHRA BKN020 
     PROB30 
     TEMPO 2300/2303 20023G38KT 4500 +SHRA BKN014CB 
     BECMG 2303/2306 23016G27KT 
     TEMPO 2306/2310 24013KT
       
EGSH 230320Z AUTO 20023G35KT 160V230 9999 BKN030/// BKN035/// 14/09 Q0985
TAF EGSH 230159Z 2303/2312 20020G30KT 9999 SCT025 
     PROB30 
     TEMPO 2303/2305 21030G40KT 4000 +SHRA BKN014 
     BECMG 2305/2308 26014KT 
     PROB30 
     TEMPO 2305/2308 27018G28KT 6000 SHRA BKN012 
     BECMG 2309/2312 24017G27KT
       
EGVO 230250Z 22020KT 9999 RA BKN012 BKN016 13/11 Q0986 GRN
TAF EGVO 221644Z 2218/2306 20020G30KT 9999 SCT030 
     TEMPO 2218/2306 6000 RA BKN020 
     PROB30 
     TEMPO 2218/2219 20024G40KT 
     PROB30 
     TEMPO 2219/2305 20024G40KT 4000 +SHRA SCT014TCU
       
EGPK 230250Z 28010KT 9999 -SHRA SCT014 BKN032 05/03 Q0979
TAF EGPK 222300Z 2300/2324 VRB03KT 9999 BKN020 
     PROB40 
     TEMPO 2300/2305 4000 -RA SHRA BKN008 
     BECMG 2304/2307 26012KT 
     PROB30 
     TEMPO 2310/2324 6000 SHRA BKN009
       
EGXP 230250Z AUTO 20011KT 9999 // BKN017/// BKN025/// 12/10 Q0981
EGPM 230320Z AUTO 35015KT 9999 OVC040/// 04/M04 Q0977
TAF EGPM 230154Z 2303/2312 33012KT 9999 SCT045
       
EGOS 230250Z AUTO 22005KT 9999 BKN019/// 11/10 Q0982 RERA
EGHI 222150Z 20023G40KT 160V230 8000 RA FEW024 SCT036 BKN042 14/10 Q0990
EGMC 230320Z 20022G34KT 9999 -SHRA FEW023 SCT030 15/08 Q0987
TAF EGMC 230159Z 2303/2312 20020G32KT 9999 SCT025 
     PROB30 
     TEMPO 2303/2306 21030G42KT 4000 +SHRA BKN014 
     BECMG 2306/2309 26015KT 
     PROB30 
     TEMPO 2306/2309 27018G28KT 6000 SHRA BKN012 
     BECMG 2309/2312 25018G28KT
       
EGDX 230250Z AUTO 28014KT 4500 RA SCT005/// BKN013/// 11/11 Q0985
EGSS 230320Z AUTO 20018KT 4900 RA BKN017/// //////TCU 12/11 Q0986
TAF AMD EGSS 230313Z 2303/2406 20018G28KT 9999 SCT025 
     TEMPO 2303/2307 8000 -SHRA BKN012 
     PROB30 
     TEMPO 2303/2304 21028G38KT 3000 +SHRA BKN010 
     BECMG 2304/2307 23014KT 
     PROB30 
     TEMPO 2304/2307 26018G28KT 4000 SHRA BKN008 
     TEMPO 2309/2315 24018G28KT 
     BECMG 2318/2321 22004KT
       
EGPO 230320Z 01021KT 9999 -SHRA FEW012 SCT016 03/01 Q0980
TAF AMD EGPO 230329Z 2303/2312 01018KT 9999 FEW010 
     TEMPO 2303/2312 6000 SHRASN BKN008 
     PROB30 
     TEMPO 2303/2309 1000 SHSN BKN002 
     BECMG 2309/2312 32012KT
       
TAF EGPB 230200Z 2303/2312 35012KT 9999 FEW030
       
EGNV 222320Z 19020KT 9000 -RA FEW023 SCT039 13/10 Q0975
EGPU 230320Z AUTO 05007KT 9999 NCD 01/00 Q0978 RERA
EGXZ 230250Z AUTO 21008KT 9999 FEW050/// OVC100/// 10/08 Q0979
EGOV 230250Z AUTO 26013KT 9999 FEW029/// BKN050/// 06/02 Q0984 RERA
EGXW 230250Z 21017KT 9999 -RA SCT018 BKN028 12/09 Q0982 WHT
TAF EGXW 230137Z 2303/2321 23015G25KT 9999 BKN030 
     TEMPO 2303/2306 22025G35KT 7000 SHRA BKN018 
     BECMG 2308/2311 24022G35KT 
     BECMG 2316/2318 23012KT
       
EGUW 230250Z AUTO 20019G30KT 9999 FEW036/// BKN045/// 14/08 Q0986 RERA
EGPC 230320Z AUTO 04018KT 6000 -RA BKN010/// 03/03 Q0977
TAF EGPC 230154Z 2303/2312 02018KT 9999 SCT012 
     PROB30 
     TEMPO 2303/2312 4000 SHRASN BKN006 
     BECMG 2309/2312 31015KT
       
EGXT 230250Z AUTO 21018KT 9999 SCT016/// BKN060/// 12/10 Q0983
EGDY 230250Z AUTO 23009KT 9999 SCT017/// SCT060/// 12/10 Q0986